This is the latest recevied weather packets stored in our database for station/object AA7DG. If no packets are shown the sender has not sent any weather packets the latest 10 day(s).
| Time | Temp. | Humidity | Pressure | Rain* | Wind** | Luminosity | Snow |
|---|---|---|---|---|---|---|---|
| 1777354802 | 12.78° C | 46% | 1014.2 hPa | - | - | - | - |
| 1777352101 | 12.22° C | 51% | 1014.2 hPa | - | - | - | - |
| 1777351802 | 12.22° C | 52% | 1014.1 hPa | - | - | - | - |
| 1777350902 | 12.78° C | 49% | 1013.9 hPa | - | - | - | - |
| 1777350601 | 12.78° C | 49% | 1013.9 hPa | - | - | - | - |
| 1777348800 | 13.33° C | 45% | 1013.9 hPa | - | - | - | - |
| 1777348501 | 13.33° C | 45% | 1013.9 hPa | - | - | - | - |
| 1777347901 | 13.89° C | 44% | 1013.6 hPa | - | - | - | - |
| 1777346701 | 13.89° C | 42% | 1013.5 hPa | - | - | - | - |
| 1777346101 | 13.89° C | 42% | 1013.3 hPa | - | - | - | - |
| 1777341906 | 15.56° C | 40% | 1013.2 hPa | - | - | - | - |
| 1777340700 | 15.56° C | 37% | 1012.9 hPa | - | - | - | - |
| 1777340104 | 16.11° C | 36% | 1012.9 hPa | - | - | - | - |
| 1777339201 | 15.56° C | 36% | 1012.9 hPa | - | - | - | - |
| 1777338601 | 16.11° C | 36% | 1012.9 hPa | - | - | - | - |
| 1777338305 | 16.11° C | 36% | 1012.9 hPa | - | - | - | - |
| 1777338001 | 16.11° C | 34% | 1012.6 hPa | - | - | - | - |
| 1777337401 | 16.67° C | 33% | 1012.5 hPa | - | - | - | - |
| 1777337106 | 17.22° C | 32% | 1012.5 hPa | - | - | - | - |
| 1777335905 | 17.78° C | 31% | 1012.5 hPa | - | - | - | - |
| 1777335001 | 17.22° C | 33% | 1012.9 hPa | - | - | - | - |
| 1777334700 | 16.67° C | 33% | 1012.9 hPa | - | - | - | - |
| 1777333801 | 16.11° C | 33% | 1012.9 hPa | - | - | - | - |
| 1777332602 | 17.22° C | 31% | 1012.5 hPa | - | - | - | - |
| 1777330806 | 18.33° C | 30% | 1012.4 hPa | - | - | - | - |
* Rain since midnight (hover to see other rain measurements)
** Current wind speed in m/s (hover to see current wind gust speed)